Time;durP1;ratioP1;P1;durP2;ratioP2;P2;SDS_P1;SDS_P2;PMS_P1;PMS_P2;Temp;Humidity;BMP_temperature;BMP_pressure;BME280_temperature;BME280_humidity;BME280_pressure;Samples;Min_cycle;Max_cycle;Signal;HPM_P1;HPM_P2
2023/10/23 00:01:16;;;;;;;5.20;2.17;;;;;;;;;;4935215;28;20019;-88
2023/10/23 00:04:02;;;;;;;6.43;2.00;;;;;;;;;;4936100;28;20505;-87
2023/10/23 00:06:47;;;;;;;7.10;2.92;;;;;;;;;;4935793;28;20050;-88
2023/10/23 00:09:32;;;;;;;6.15;2.35;;;;;;;;;;4935732;28;20110;-85
2023/10/23 00:12:17;;;;;;;5.07;2.22;;;;;;;;;;4948269;28;20051;-86
2023/10/23 00:15:03;;;;;;;5.32;2.60;;;;;;;;;;4937567;29;20027;-87
2023/10/23 00:17:48;;;;;;;6.00;2.17;;;;;;;;;;4905183;29;20031;-87
2023/10/23 00:20:33;;;;;;;5.60;1.95;;;;;;;;;;4937712;28;20103;-87
2023/10/23 00:23:19;;;;;;;5.18;2.00;;;;;;;;;;4940152;29;20067;-86
2023/10/23 00:26:07;;;;;;;5.20;2.28;;;;;;;;;;4936497;28;20054;-86
2023/10/23 00:28:52;;;;;;;4.97;1.90;;;;;;;;;;4933710;28;20378;-87
2023/10/23 00:31:38;;;;;;;3.55;1.63;;;;;;;;;;4939559;28;20019;-87
2023/10/23 00:34:23;;;;;;;6.78;2.28;;;;;;;;;;4946970;28;20034;-85
2023/10/23 00:37:08;;;;;;;4.95;2.03;;;;;;;;;;4939546;28;20023;-88
2023/10/23 00:39:53;;;;;;;6.57;1.80;;;;;;;;;;4939643;29;20038;-87
2023/10/23 00:42:38;;;;;;;6.78;2.50;;;;;;;;;;4937387;28;20031;-84
2023/10/23 00:45:24;;;;;;;6.75;1.77;;;;;;;;;;4938973;28;20482;-84
2023/10/23 00:48:09;;;;;;;4.95;2.78;;;;;;;;;;4939162;28;20020;-83
2023/10/23 00:50:58;;;;;;;8.13;2.05;;;;;;;;;;4938016;28;20042;-85
2023/10/23 00:53:44;;;;;;;5.20;1.80;;;;;;;;;;4925155;29;20172;-84
2023/10/23 00:56:29;;;;;;;4.07;2.08;;;;;;;;;;4919819;29;20039;-85
2023/10/23 00:59:15;;;;;;;4.85;2.03;;;;;;;;;;4920003;29;20027;-85
2023/10/23 01:02:00;;;;;;;4.47;2.00;;;;;;;;;;4914405;29;20020;-85
2023/10/23 01:04:46;;;;;;;4.22;1.98;;;;;;;;;;4919036;29;20053;-85
2023/10/23 01:07:31;;;;;;;6.75;2.83;;;;;;;;;;4913860;29;20479;-86
2023/10/23 01:10:16;;;;;;;7.72;2.20;;;;;;;;;;4906138;29;20052;-85
2023/10/23 01:13:08;;;;;;;6.47;1.63;;;;;;;;;;4932884;29;20176;-86
2023/10/23 01:15:54;;;;;;;4.90;2.67;;;;;;;;;;4907646;29;20035;-85
2023/10/23 01:18:39;;;;;;;7.93;2.47;;;;;;;;;;4912381;29;20032;-85
2023/10/23 01:21:24;;;;;;;3.55;1.88;;;;;;;;;;4900628;29;20034;-86
2023/10/23 01:24:11;;;;;;;5.20;1.95;;;;;;;;;;4918482;29;20020;-86
2023/10/23 01:26:56;;;;;;;3.88;1.88;;;;;;;;;;4912218;29;20482;-86
2023/10/23 01:29:41;;;;;;;3.67;1.83;;;;;;;;;;4932513;29;20501;-86
2023/10/23 01:32:26;;;;;;;7.28;3.17;;;;;;;;;;4919846;29;20094;-86
2023/10/23 01:35:12;;;;;;;5.30;1.80;;;;;;;;;;4918046;29;20569;-86
2023/10/23 01:37:57;;;;;;;4.80;2.00;;;;;;;;;;4918955;29;20050;-87
2023/10/23 01:40:42;;;;;;;6.53;1.88;;;;;;;;;;4911303;29;20027;-88
2023/10/23 01:43:28;;;;;;;3.28;1.98;;;;;;;;;;4932238;28;20035;-87
2023/10/23 01:46:13;;;;;;;4.32;1.65;;;;;;;;;;4906911;29;20031;-86
2023/10/23 01:48:58;;;;;;;3.40;1.88;;;;;;;;;;4947433;29;20438;-87
2023/10/23 01:51:44;;;;;;;10.00;2.25;;;;;;;;;;4924811;29;20024;-86
2023/10/23 01:54:29;;;;;;;4.63;1.85;;;;;;;;;;4928603;29;20103;-86
2023/10/23 01:57:14;;;;;;;5.00;2.10;;;;;;;;;;4926489;29;20028;-86
2023/10/23 02:00:04;;;;;;;5.15;1.95;;;;;;;;;;4932037;29;20028;-88
2023/10/23 02:02:49;;;;;;;8.68;1.92;;;;;;;;;;4930209;29;20023;-87
2023/10/23 02:05:35;;;;;;;3.70;1.80;;;;;;;;;;4932332;29;20086;-88
2023/10/23 02:08:23;;;;;;;6.43;2.97;;;;;;;;;;4929608;29;20042;-87
2023/10/23 02:11:09;;;;;;;7.20;2.00;;;;;;;;;;4929301;29;20019;-87
2023/10/23 02:13:54;;;;;;;3.45;2.47;;;;;;;;;;4933035;29;20430;-86
2023/10/23 02:16:39;;;;;;;4.47;1.65;;;;;;;;;;4932268;29;20031;-84
2023/10/23 02:19:24;;;;;;;2.75;1.77;;;;;;;;;;4920250;29;20152;-86
2023/10/23 02:22:09;;;;;;;6.22;2.55;;;;;;;;;;4943230;29;20087;-87
2023/10/23 02:24:58;;;;;;;5.50;2.10;;;;;;;;;;4931700;29;20391;-85
2023/10/23 02:27:43;;;;;;;10.90;2.92;;;;;;;;;;4931737;29;20043;-86
2023/10/23 02:30:28;;;;;;;6.32;2.38;;;;;;;;;;4940550;28;20031;-86
2023/10/23 02:33:14;;;;;;;4.07;2.00;;;;;;;;;;4934099;29;20426;-86
2023/10/23 02:35:59;;;;;;;5.38;1.75;;;;;;;;;;4930019;29;20382;-85
2023/10/23 02:38:44;;;;;;;5.30;2.22;;;;;;;;;;4932282;29;20032;-85
2023/10/23 02:41:30;;;;;;;3.50;1.95;;;;;;;;;;4928052;29;20059;-84
2023/10/23 02:44:16;;;;;;;6.70;2.55;;;;;;;;;;4933776;29;20024;-85
2023/10/23 02:47:02;;;;;;;4.03;1.92;;;;;;;;;;4933859;29;20130;-86
2023/10/23 02:49:47;;;;;;;5.72;2.47;;;;;;;;;;4945255;28;20027;-87
2023/10/23 02:52:33;;;;;;;3.45;2.03;;;;;;;;;;4931951;29;20035;-87
2023/10/23 02:55:18;;;;;;;3.42;1.95;;;;;;;;;;4927010;29;20095;-88
2023/10/23 02:58:06;;;;;;;4.32;1.55;;;;;;;;;;4919819;29;20467;-87
2023/10/23 03:00:51;;;;;;;4.80;1.88;;;;;;;;;;4931643;29;20490;-88
2023/10/23 03:03:36;;;;;;;5.10;2.10;;;;;;;;;;4921829;29;20046;-87
2023/10/23 03:06:22;;;;;;;4.47;1.70;;;;;;;;;;4951611;28;20027;-86
2023/10/23 03:09:07;;;;;;;6.22;2.55;;;;;;;;;;4908755;28;20693;-86
2023/10/23 03:11:52;;;;;;;4.18;2.10;;;;;;;;;;4932365;29;20339;-86
2023/10/23 03:14:38;;;;;;;4.47;2.45;;;;;;;;;;4938455;28;20027;-87
2023/10/23 03:17:26;;;;;;;6.13;1.98;;;;;;;;;;4923253;28;20090;-89
2023/10/23 03:20:11;;;;;;;6.57;2.55;;;;;;;;;;4951097;28;20112;-88
2023/10/23 03:22:56;;;;;;;3.70;1.77;;;;;;;;;;4936866;28;20033;-87
2023/10/23 03:25:42;;;;;;;7.57;3.13;;;;;;;;;;4924207;29;20478;-87
2023/10/23 03:28:27;;;;;;;6.05;2.00;;;;;;;;;;4949704;28;20053;-86
2023/10/23 03:31:13;;;;;;;4.43;2.22;;;;;;;;;;4926490;28;20019;-85
2023/10/23 03:34:01;;;;;;;6.15;1.98;;;;;;;;;;4931751;29;20047;-86
2023/10/23 03:36:46;;;;;;;6.68;1.98;;;;;;;;;;4922367;29;20095;-86
2023/10/23 03:39:31;;;;;;;5.70;2.03;;;;;;;;;;4929888;29;20069;-86
2023/10/23 03:42:17;;;;;;;5.15;1.60;;;;;;;;;;4937760;29;20078;-85
2023/10/23 03:45:03;;;;;;;5.05;2.58;;;;;;;;;;4938590;29;20087;-87
2023/10/23 03:47:48;;;;;;;4.22;2.15;;;;;;;;;;4927496;29;20018;-88
2023/10/23 03:50:36;;;;;;;6.97;2.13;;;;;;;;;;4941707;29;20031;-88
2023/10/23 03:53:21;;;;;;;4.82;2.15;;;;;;;;;;4938890;28;20387;-87
2023/10/23 03:56:06;;;;;;;4.82;1.90;;;;;;;;;;4924948;29;20043;-87
2023/10/23 03:58:52;;;;;;;6.03;1.90;;;;;;;;;;4922440;29;20041;-87
2023/10/23 04:01:37;;;;;;;3.55;1.80;;;;;;;;;;4936534;29;20119;-87
2023/10/23 04:04:22;;;;;;;5.05;1.80;;;;;;;;;;4920067;29;20182;-87
2023/10/23 04:07:07;;;;;;;4.75;2.25;;;;;;;;;;4923804;29;20053;-87
2023/10/23 04:09:52;;;;;;;4.80;2.10;;;;;;;;;;4913523;29;20924;-88
2023/10/23 04:12:37;;;;;;;4.78;2.10;;;;;;;;;;4923509;29;20478;-88
2023/10/23 04:15:23;;;;;;;3.53;2.08;;;;;;;;;;4925101;29;20027;-90
2023/10/23 04:18:08;;;;;;;3.45;1.70;;;;;;;;;;4921924;29;20516;-88
2023/10/23 04:21:10;;;;;;;5.45;2.17;;;;;;;;;;4937661;29;20503;-86
2023/10/23 04:23:56;;;;;;;4.75;2.13;;;;;;;;;;4918636;29;20671;-89
2023/10/23 04:26:41;;;;;;;6.53;1.90;;;;;;;;;;4923535;29;20031;-87
2023/10/23 04:29:26;;;;;;;3.10;1.60;;;;;;;;;;4924348;29;20088;-87
2023/10/23 04:32:11;;;;;;;5.35;1.83;;;;;;;;;;4912232;29;20094;-87
2023/10/23 04:34:57;;;;;;;6.70;2.40;;;;;;;;;;4922208;29;20107;-87
2023/10/23 04:37:42;;;;;;;7.20;2.47;;;;;;;;;;4913314;29;20355;-87
2023/10/23 04:40:27;;;;;;;8.30;2.22;;;;;;;;;;4920402;29;20164;-87
2023/10/23 04:43:12;;;;;;;4.60;2.25;;;;;;;;;;4937025;29;20656;-88
2023/10/23 04:45:58;;;;;;;6.88;2.22;;;;;;;;;;4911276;29;20110;-87
2023/10/23 04:48:43;;;;;;;5.57;2.28;;;;;;;;;;4923011;29;20038;-88
2023/10/23 04:51:28;;;;;;;6.03;2.20;;;;;;;;;;4931632;29;20027;-87
2023/10/23 04:54:14;;;;;;;6.97;2.00;;;;;;;;;;4933498;28;20067;-88
2023/10/23 04:56:59;;;;;;;4.05;1.98;;;;;;;;;;4932590;29;20027;-86
2023/10/23 05:03:08;;;;;;;4.20;2.55;;;;;;;;;;4929085;29;20034;-88
2023/10/23 05:05:54;;;;;;;3.13;2.05;;;;;;;;;;4952419;28;20521;-87
2023/10/23 05:08:39;;;;;;;6.07;3.03;;;;;;;;;;4939284;28;20427;-88
2023/10/23 05:11:24;;;;;;;6.90;2.08;;;;;;;;;;4939784;28;20386;-88
2023/10/23 05:14:09;;;;;;;5.03;2.63;;;;;;;;;;4927313;29;20032;-87
2023/10/23 05:16:55;;;;;;;5.47;2.15;;;;;;;;;;4926292;28;20120;-87
2023/10/23 05:19:40;;;;;;;5.82;2.20;;;;;;;;;;4937628;28;20088;-87
2023/10/23 05:22:25;;;;;;;3.67;1.90;;;;;;;;;;4939325;28;20042;-88
2023/10/23 05:25:11;;;;;;;7.15;2.42;;;;;;;;;;4941044;28;20023;-87
2023/10/23 05:27:56;;;;;;;5.90;2.00;;;;;;;;;;4926495;28;20106;-89
2023/10/23 05:30:41;;;;;;;4.97;2.00;;;;;;;;;;4941133;29;20038;-87
2023/10/23 05:33:26;;;;;;;5.03;2.17;;;;;;;;;;4938478;28;20035;-85
2023/10/23 05:36:12;;;;;;;5.60;2.80;;;;;;;;;;4939041;29;20035;-90
2023/10/23 05:38:57;;;;;;;4.68;2.30;;;;;;;;;;4950499;28;20103;-89
2023/10/23 05:41:42;;;;;;;6.18;2.63;;;;;;;;;;4951961;28;20027;-90
2023/10/23 05:44:27;;;;;;;7.63;2.75;;;;;;;;;;4938387;28;20394;-91
2023/10/23 05:47:13;;;;;;;6.55;2.63;;;;;;;;;;4931155;29;20046;-81
2023/10/23 05:49:58;;;;;;;4.50;2.53;;;;;;;;;;4949911;28;20035;-83
2023/10/23 05:52:43;;;;;;;4.90;2.20;;;;;;;;;;4923498;29;20098;-84
2023/10/23 05:55:33;;;;;;;5.25;2.40;;;;;;;;;;4933915;28;20414;-86
2023/10/23 05:58:18;;;;;;;5.40;2.50;;;;;;;;;;4939625;28;20059;-86
2023/10/23 06:01:08;;;;;;;5.05;2.90;;;;;;;;;;4948585;28;20070;-86
2023/10/23 06:03:53;;;;;;;7.40;3.10;;;;;;;;;;4943010;28;20023;-88
2023/10/23 06:06:42;;;;;;;8.35;3.40;;;;;;;;;;4943571;28;20390;-90
2023/10/23 06:09:28;;;;;;;;;;;;;;;;;;4929681;29;20140;-89
2023/10/23 06:12:14;;;;;;;7.78;3.28;;;;;;;;;;4932169;28;19942;-84
2023/10/23 06:15:00;;;;;;;9.55;3.55;;;;;;;;;;4931902;28;20829;-84
2023/10/23 06:17:45;;;;;;;6.53;2.70;;;;;;;;;;4931560;29;20039;-85
2023/10/23 06:20:32;;;;;;;5.72;2.60;;;;;;;;;;4932713;29;20032;-83
2023/10/23 06:23:17;;;;;;;7.32;3.28;;;;;;;;;;4927100;28;20030;-84
2023/10/23 06:26:02;;;;;;;10.30;4.53;;;;;;;;;;4947927;28;20034;-83
2023/10/23 06:28:47;;;;;;;6.10;2.45;;;;;;;;;;4916559;29;20385;-83
2023/10/23 06:31:35;;;;;;;8.95;3.22;;;;;;;;;;4928371;28;20446;-82
2023/10/23 06:34:21;;;;;;;9.27;3.22;;;;;;;;;;4924385;29;20044;-84
2023/10/23 06:37:07;;;;;;;6.70;2.95;;;;;;;;;;4940496;29;20497;-82
2023/10/23 06:39:52;;;;;;;8.43;3.47;;;;;;;;;;4937661;28;20031;-81
2023/10/23 06:42:37;;;;;;;7.28;3.00;;;;;;;;;;4930278;29;20020;-82
2023/10/23 06:45:22;;;;;;;6.97;3.28;;;;;;;;;;4939617;28;20109;-81
2023/10/23 06:48:10;;;;;;;7.75;3.35;;;;;;;;;;4935693;28;20031;-83
2023/10/23 06:50:55;;;;;;;5.35;2.80;;;;;;;;;;4932900;28;20098;-83
2023/10/23 06:53:41;;;;;;;5.47;2.95;;;;;;;;;;4932488;29;20071;-84
2023/10/23 06:56:26;;;;;;;7.20;2.63;;;;;;;;;;4951154;28;20170;-83
2023/10/23 06:59:12;;;;;;;8.40;3.95;;;;;;;;;;4928911;28;20118;-85
2023/10/23 07:01:57;;;;;;;9.60;2.70;;;;;;;;;;4939739;28;20390;-85
2023/10/23 07:04:42;;;;;;;15.13;4.45;;;;;;;;;;4931965;28;20023;-83
2023/10/23 07:07:28;;;;;;;8.52;3.80;;;;;;;;;;4937022;28;20501;-88
2023/10/23 07:10:38;;;;;;;10.38;4.05;;;;;;;;;;4932761;29;20158;-86
2023/10/23 07:13:27;;;;;;;6.10;3.20;;;;;;;;;;4912581;29;20581;-84
2023/10/23 07:16:12;;;;;;;9.10;4.15;;;;;;;;;;4937728;28;20219;-86
2023/10/23 07:18:57;;;;;;;8.02;3.90;;;;;;;;;;4933229;28;20035;-84
2023/10/23 07:21:43;;;;;;;6.47;3.13;;;;;;;;;;4927698;28;20015;-85
2023/10/23 07:24:28;;;;;;;10.10;3.65;;;;;;;;;;4932934;29;20430;-83
2023/10/23 07:27:16;;;;;;;9.02;3.63;;;;;;;;;;4930218;29;20212;-85
2023/10/23 07:30:04;;;;;;;6.55;3.28;;;;;;;;;;4949246;28;20058;-85
2023/10/23 07:32:52;;;;;;;11.02;4.10;;;;;;;;;;4916228;28;20042;-86
2023/10/23 07:35:37;;;;;;;10.10;4.03;;;;;;;;;;4931891;29;20031;-87
2023/10/23 07:38:23;;;;;;;9.45;3.25;;;;;;;;;;4929970;29;20023;-87
2023/10/23 07:41:09;;;;;;;7.72;3.03;;;;;;;;;;4928279;29;20110;-83
2023/10/23 07:43:54;;;;;;;7.47;3.22;;;;;;;;;;4932825;28;20031;-86
2023/10/23 07:46:42;;;;;;;9.65;3.35;;;;;;;;;;4927787;29;20039;-85
2023/10/23 07:49:27;;;;;;;7.25;3.90;;;;;;;;;;4930816;28;20083;-82
2023/10/23 07:52:12;;;;;;;7.88;3.17;;;;;;;;;;4929061;29;20118;-83
2023/10/23 07:54:58;;;;;;;10.32;3.83;;;;;;;;;;4932702;28;20090;-85
2023/10/23 07:57:43;;;;;;;9.07;4.47;;;;;;;;;;4921659;28;20039;-86
2023/10/23 08:00:28;;;;;;;10.60;3.60;;;;;;;;;;4926788;29;20059;-85
2023/10/23 08:03:13;;;;;;;8.02;3.92;;;;;;;;;;4931997;29;20030;-84
2023/10/23 08:06:00;;;;;;;11.02;4.18;;;;;;;;;;4928501;28;20035;-83
2023/10/23 08:08:45;;;;;;;8.07;3.47;;;;;;;;;;4923802;29;20027;-82
2023/10/23 08:11:31;;;;;;;7.60;4.22;;;;;;;;;;4923893;28;20039;-85
2023/10/23 08:14:16;;;;;;;16.70;4.28;;;;;;;;;;4938646;28;20062;-86
2023/10/23 08:17:01;;;;;;;10.55;4.22;;;;;;;;;;4937279;28;20034;-85
2023/10/23 08:19:46;;;;;;;8.98;4.07;;;;;;;;;;4936306;28;20045;-83
2023/10/23 08:22:53;;;;;;;8.63;3.80;;;;;;;;;;4950745;28;20015;-86
2023/10/23 08:29:50;;;;;;;7.35;3.53;;;;;;;;;;4780726;29;20045;-85
2023/10/23 08:32:45;;;;;;;11.35;4.40;;;;;;;;;;4859195;29;20034;-85
2023/10/23 08:35:40;;;;;;;10.90;4.78;;;;;;;;;;4882821;29;20099;-84
2023/10/23 08:38:27;;;;;;;11.32;4.05;;;;;;;;;;4936120;29;20027;-85
2023/10/23 08:41:13;;;;;;;9.20;4.65;;;;;;;;;;4935919;28;20027;-86
2023/10/23 08:43:58;;;;;;;11.13;5.00;;;;;;;;;;4940003;29;20733;-87
2023/10/23 08:46:43;;;;;;;9.60;4.72;;;;;;;;;;4943785;28;20247;-87
2023/10/23 08:49:29;;;;;;;9.88;4.50;;;;;;;;;;4938169;29;20033;-85
2023/10/23 08:52:15;;;;;;;9.07;3.95;;;;;;;;;;4943119;28;20061;-84
2023/10/23 08:55:02;;;;;;;9.07;4.22;;;;;;;;;;4945687;28;20501;-84
2023/10/23 08:57:51;;;;;;;14.50;3.97;;;;;;;;;;4935308;29;20046;-83
2023/10/23 09:00:36;;;;;;;7.90;3.75;;;;;;;;;;4931040;29;20038;-82
2023/10/23 09:03:23;;;;;;;9.40;4.00;;;;;;;;;;4932931;28;20043;-87
2023/10/23 09:06:09;;;;;;;8.75;3.90;;;;;;;;;;4937613;29;20019;-84
2023/10/23 09:08:54;;;;;;;13.68;4.32;;;;;;;;;;4946859;28;20066;-83
2023/10/23 09:11:41;;;;;;;15.02;5.10;;;;;;;;;;4938189;28;20486;-85
2023/10/23 09:14:27;;;;;;;7.05;3.13;;;;;;;;;;4936109;28;20489;-85
2023/10/23 09:17:13;;;;;;;9.50;4.10;;;;;;;;;;4929720;28;20038;-82
2023/10/23 09:19:58;;;;;;;11.45;4.28;;;;;;;;;;4928055;29;20608;-83
2023/10/23 09:22:47;;;;;;;8.07;3.45;;;;;;;;;;4935301;29;20044;-83
2023/10/23 09:25:33;;;;;;;7.80;4.00;;;;;;;;;;4929165;29;20510;-86
2023/10/23 09:28:20;;;;;;;8.60;3.40;;;;;;;;;;4929635;29;20263;-82
2023/10/23 09:31:06;;;;;;;7.93;2.90;;;;;;;;;;4932882;28;20051;-86
2023/10/23 09:33:51;;;;;;;7.72;3.33;;;;;;;;;;4938554;28;20232;-87
2023/10/23 09:36:36;;;;;;;5.72;3.10;;;;;;;;;;4928389;29;20039;-85
2023/10/23 09:39:22;;;;;;;8.90;4.10;;;;;;;;;;4937691;28;20027;-87
2023/10/23 09:42:08;;;;;;;11.50;3.53;;;;;;;;;;4930512;29;20526;-86
2023/10/23 09:44:54;;;;;;;8.23;3.50;;;;;;;;;;4935009;29;20063;-84
2023/10/23 09:47:39;;;;;;;8.88;3.50;;;;;;;;;;4934145;28;20070;-83
2023/10/23 09:50:28;;;;;;;9.32;3.47;;;;;;;;;;4934189;29;20450;-86
2023/10/23 09:53:13;;;;;;;8.38;2.97;;;;;;;;;;4928013;29;20118;-85
2023/10/23 09:56:00;;;;;;;9.93;3.83;;;;;;;;;;4932083;29;20118;-84
2023/10/23 09:58:47;;;;;;;6.93;4.53;;;;;;;;;;4927928;28;20031;-88
2023/10/23 10:01:53;;;;;;;7.53;2.78;;;;;;;;;;4946889;28;20896;-83
2023/10/23 10:05:02;;;;;;;8.18;3.40;;;;;;;;;;4933818;29;20035;-85
2023/10/23 10:07:56;;;;;;;5.68;3.00;;;;;;;;;;4935448;28;20398;-86
2023/10/23 10:10:42;;;;;;;5.00;2.60;;;;;;;;;;4936179;28;20038;-85
2023/10/23 10:13:28;;;;;;;9.23;3.20;;;;;;;;;;4939246;29;20035;-84
2023/10/23 10:16:14;;;;;;;5.68;2.53;;;;;;;;;;4937474;28;20050;-84
2023/10/23 10:19:00;;;;;;;7.40;3.13;;;;;;;;;;4927314;29;20067;-81
2023/10/23 10:21:48;;;;;;;5.63;2.65;;;;;;;;;;4935423;29;20402;-84
2023/10/23 10:24:34;;;;;;;9.13;2.70;;;;;;;;;;4931552;28;20031;-82
2023/10/23 10:27:20;;;;;;;6.60;3.55;;;;;;;;;;4938997;28;20046;-83
2023/10/23 10:30:06;;;;;;;8.30;3.10;;;;;;;;;;4928565;28;20040;-83
2023/10/23 10:32:55;;;;;;;6.07;2.67;;;;;;;;;;4934159;28;20158;-80
2023/10/23 10:35:46;;;;;;;6.10;2.55;;;;;;;;;;4937782;28;20082;-83
2023/10/23 10:38:32;;;;;;;7.93;3.08;;;;;;;;;;4938680;28;20043;-85
2023/10/23 10:41:18;;;;;;;5.93;2.83;;;;;;;;;;4938808;28;20035;-85
2023/10/23 10:44:08;;;;;;;8.40;2.83;;;;;;;;;;4937555;29;20098;-84
2023/10/23 10:46:53;;;;;;;6.32;3.03;;;;;;;;;;4933840;28;20166;-85
2023/10/23 10:49:43;;;;;;;6.43;3.88;;;;;;;;;;4934682;28;20035;-85
2023/10/23 10:52:32;;;;;;;6.63;3.00;;;;;;;;;;4948868;28;20027;-84
2023/10/23 10:55:17;;;;;;;4.60;2.80;;;;;;;;;;4937435;28;20130;-82
2023/10/23 10:58:03;;;;;;;4.75;2.53;;;;;;;;;;4932326;29;20174;-88
2023/10/23 11:00:49;;;;;;;6.40;3.38;;;;;;;;;;4932910;28;20102;-88
2023/10/23 11:03:36;;;;;;;6.32;2.83;;;;;;;;;;4940172;29;20023;-87
2023/10/23 11:06:22;;;;;;;7.05;3.22;;;;;;;;;;4937332;28;20516;-87
2023/10/23 11:09:11;;;;;;;4.97;2.78;;;;;;;;;;4935680;29;20386;-86
2023/10/23 11:11:59;;;;;;;8.10;3.38;;;;;;;;;;4942620;28;20034;-86
2023/10/23 11:14:47;;;;;;;6.35;2.95;;;;;;;;;;4932811;29;20032;-85
2023/10/23 11:17:33;;;;;;;9.27;2.90;;;;;;;;;;4935189;28;20189;-87
2023/10/23 11:20:18;;;;;;;6.47;3.05;;;;;;;;;;4939318;28;20187;-86
2023/10/23 11:23:04;;;;;;;9.40;2.95;;;;;;;;;;4928115;28;20050;-88
2023/10/23 11:25:50;;;;;;;7.25;3.15;;;;;;;;;;4935375;28;20030;-87
2023/10/23 11:28:38;;;;;;;7.72;3.03;;;;;;;;;;4936769;28;20024;-86
2023/10/23 11:31:23;;;;;;;12.65;4.13;;;;;;;;;;4953255;28;20118;-88
2023/10/23 11:34:12;;;;;;;13.52;4.03;;;;;;;;;;4949720;29;20026;-89
2023/10/23 11:36:59;;;;;;;13.60;5.72;;;;;;;;;;4954434;28;20019;-87
2023/10/23 11:39:47;;;;;;;11.98;5.22;;;;;;;;;;4944561;28;20053;-87
2023/10/23 11:42:40;;;;;;;11.48;5.32;;;;;;;;;;4950244;28;20116;-89
2023/10/23 11:45:26;;;;;;;15.27;5.60;;;;;;;;;;4932804;28;20035;-88
2023/10/23 11:48:12;;;;;;;14.93;6.55;;;;;;;;;;4953085;28;20382;-86
2023/10/23 11:50:58;;;;;;;16.65;7.07;;;;;;;;;;4936002;28;20478;-83
2023/10/23 11:53:46;;;;;;;14.52;6.95;;;;;;;;;;4932376;28;20690;-83
2023/10/23 11:56:32;;;;;;;17.48;6.80;;;;;;;;;;4925780;29;20140;-84
2023/10/23 11:59:18;;;;;;;14.63;5.90;;;;;;;;;;4948750;28;20046;-84
2023/10/23 12:02:03;;;;;;;22.02;6.88;;;;;;;;;;4930461;28;20031;-84
2023/10/23 12:04:49;;;;;;;16.27;6.90;;;;;;;;;;4934644;29;20030;-86
2023/10/23 12:07:34;;;;;;;11.98;5.80;;;;;;;;;;4928029;28;20031;-88
2023/10/23 12:10:20;;;;;;;14.88;5.55;;;;;;;;;;4931862;28;20529;-89
2023/10/23 12:13:06;;;;;;;15.02;5.40;;;;;;;;;;4950001;28;20742;-87
2023/10/23 12:15:51;;;;;;;14.45;5.55;;;;;;;;;;4932482;29;20040;-88
2023/10/23 12:18:36;;;;;;;11.73;5.65;;;;;;;;;;4921589;29;20102;-87
2023/10/23 12:21:22;;;;;;;12.20;5.80;;;;;;;;;;4939154;28;20067;-88
2023/10/23 12:24:07;;;;;;;10.82;5.88;;;;;;;;;;4935920;29;20038;-87
2023/10/23 12:26:52;;;;;;;10.57;5.45;;;;;;;;;;4928617;29;20059;-85
2023/10/23 12:29:37;;;;;;;10.88;5.32;;;;;;;;;;4931607;29;20023;-87
2023/10/23 12:32:23;;;;;;;12.50;5.43;;;;;;;;;;4938155;28;20035;-84
2023/10/23 12:35:09;;;;;;;20.45;6.05;;;;;;;;;;4934981;28;20034;-85
2023/10/23 12:37:54;;;;;;;13.95;5.65;;;;;;;;;;4943107;28;20463;-83
2023/10/23 12:40:40;;;;;;;8.93;4.78;;;;;;;;;;4938434;29;20035;-83
2023/10/23 12:43:26;;;;;;;16.23;5.70;;;;;;;;;;4948298;28;20560;-84
2023/10/23 12:46:11;;;;;;;14.45;5.47;;;;;;;;;;4928401;29;20039;-86
2023/10/23 12:48:56;;;;;;;16.83;5.78;;;;;;;;;;4936726;28;20031;-88
2023/10/23 12:51:42;;;;;;;14.10;5.65;;;;;;;;;;4932916;29;20438;-85
2023/10/23 12:54:27;;;;;;;13.30;5.93;;;;;;;;;;4935922;29;20055;-85
2023/10/23 12:57:12;;;;;;;17.02;6.38;;;;;;;;;;4936147;28;20379;-85
2023/10/23 12:59:58;;;;;;;11.65;5.40;;;;;;;;;;4934414;28;20535;-86
2023/10/23 13:02:43;;;;;;;11.80;5.20;;;;;;;;;;4940842;29;20614;-82
2023/10/23 13:05:28;;;;;;;12.32;6.57;;;;;;;;;;4931986;29;20493;-86
2023/10/23 13:08:13;;;;;;;15.85;6.10;;;;;;;;;;4933030;29;20372;-85
2023/10/23 13:10:59;;;;;;;17.85;6.20;;;;;;;;;;4936592;28;20462;-87
2023/10/23 13:13:44;;;;;;;19.33;6.82;;;;;;;;;;4917540;28;20099;-86
2023/10/23 13:16:29;;;;;;;17.30;6.13;;;;;;;;;;4932605;28;20027;-84
2023/10/23 13:19:15;;;;;;;16.70;6.53;;;;;;;;;;4935965;29;20039;-84
2023/10/23 13:22:00;;;;;;;18.35;6.15;;;;;;;;;;4932932;28;20129;-86
2023/10/23 13:24:45;;;;;;;16.50;5.30;;;;;;;;;;4939423;28;20385;-84
2023/10/23 13:27:30;;;;;;;17.20;5.38;;;;;;;;;;4938307;28;20114;-86
2023/10/23 13:30:16;;;;;;;13.35;5.57;;;;;;;;;;4936682;29;20062;-85
2023/10/23 13:33:01;;;;;;;16.38;5.32;;;;;;;;;;4934133;29;20053;-88
2023/10/23 13:35:47;;;;;;;9.90;4.40;;;;;;;;;;4933885;28;20078;-87
2023/10/23 13:38:33;;;;;;;14.02;4.50;;;;;;;;;;4934745;28;20102;-87
2023/10/23 13:41:19;;;;;;;12.55;5.32;;;;;;;;;;4939775;29;20035;-86
2023/10/23 13:44:04;;;;;;;15.05;5.18;;;;;;;;;;4959721;28;20049;-87
2023/10/23 13:46:50;;;;;;;14.38;5.15;;;;;;;;;;4942885;28;20038;-90
2023/10/23 13:49:35;;;;;;;10.75;4.45;;;;;;;;;;4940013;29;20023;-90
2023/10/23 13:52:20;;;;;;;10.90;4.88;;;;;;;;;;4954066;28;20035;-89
2023/10/23 13:55:06;;;;;;;9.48;4.78;;;;;;;;;;4936190;28;20043;-90
2023/10/23 13:57:52;;;;;;;19.80;5.43;;;;;;;;;;4922599;29;20031;-90
2023/10/23 14:00:40;;;;;;;12.95;5.43;;;;;;;;;;4932782;29;20383;-88
2023/10/23 14:03:25;;;;;;;10.70;4.22;;;;;;;;;;4937670;28;20386;-88
2023/10/23 14:06:11;;;;;;;9.82;4.47;;;;;;;;;;4936395;28;20484;-87
2023/10/23 14:08:56;;;;;;;12.40;5.03;;;;;;;;;;4937976;28;20072;-88
2023/10/23 14:11:41;;;;;;;9.40;4.55;;;;;;;;;;4933678;29;20027;-88
2023/10/23 14:14:28;;;;;;;28.55;4.43;;;;;;;;;;4933577;29;20078;-87
2023/10/23 14:17:13;;;;;;;13.57;5.38;;;;;;;;;;4931923;29;20037;-88
2023/10/23 14:19:59;;;;;;;13.05;5.00;;;;;;;;;;4933400;29;20498;-88
2023/10/23 14:22:44;;;;;;;11.10;4.22;;;;;;;;;;4935853;29;20045;-87
2023/10/23 14:25:29;;;;;;;12.55;4.60;;;;;;;;;;4935139;28;20372;-87
2023/10/23 14:28:15;;;;;;;9.07;4.20;;;;;;;;;;4930100;28;20035;-87
2023/10/23 14:31:00;;;;;;;10.75;5.40;;;;;;;;;;4920368;28;20043;-87
2023/10/23 14:33:45;;;;;;;11.77;4.57;;;;;;;;;;4937208;28;20039;-89
2023/10/23 14:36:31;;;;;;;11.55;5.28;;;;;;;;;;4934823;29;20023;-90
2023/10/23 14:39:16;;;;;;;14.05;5.82;;;;;;;;;;4931157;28;20031;-86
2023/10/23 14:42:01;;;;;;;12.60;4.50;;;;;;;;;;4934888;28;20055;-87
2023/10/23 14:44:47;;;;;;;11.52;4.60;;;;;;;;;;4938773;28;20029;-86
2023/10/23 14:47:32;;;;;;;11.73;4.35;;;;;;;;;;4928850;29;20102;-84
2023/10/23 14:50:17;;;;;;;8.32;4.38;;;;;;;;;;4929932;29;20032;-87
2023/10/23 14:53:03;;;;;;;12.73;4.88;;;;;;;;;;4931521;29;20015;-90
2023/10/23 14:55:48;;;;;;;12.73;5.80;;;;;;;;;;4918036;29;20115;-85
2023/10/23 14:58:33;;;;;;;13.43;5.40;;;;;;;;;;4921649;29;20045;-86
2023/10/23 15:01:19;;;;;;;15.10;5.97;;;;;;;;;;4922180;29;20090;-86
2023/10/23 15:04:04;;;;;;;13.38;4.57;;;;;;;;;;4914561;29;20557;-87
2023/10/23 15:06:49;;;;;;;9.30;4.00;;;;;;;;;;4911618;29;20031;-89
2023/10/23 15:09:41;;;;;;;13.23;5.70;;;;;;;;;;4916272;29;20066;-88
2023/10/23 15:12:26;;;;;;;15.90;4.53;;;;;;;;;;4913981;29;20390;-88
2023/10/23 15:15:12;;;;;;;10.45;4.50;;;;;;;;;;4915672;29;20364;-87
2023/10/23 15:17:58;;;;;;;11.82;4.50;;;;;;;;;;4910267;29;20032;-90
2023/10/23 15:20:44;;;;;;;19.52;5.30;;;;;;;;;;4903081;29;20036;-88
2023/10/23 15:23:29;;;;;;;14.48;4.38;;;;;;;;;;4914391;29;20035;-85
2023/10/23 15:26:14;;;;;;;7.72;3.65;;;;;;;;;;4919980;29;20027;-87
2023/10/23 15:29:00;;;;;;;10.35;4.20;;;;;;;;;;4923114;29;20028;-84
2023/10/23 15:31:48;;;;;;;11.77;4.93;;;;;;;;;;4920333;29;20394;-84
2023/10/23 15:34:33;;;;;;;10.80;4.50;;;;;;;;;;4918756;29;20035;-85
2023/10/23 15:37:19;;;;;;;11.57;4.60;;;;;;;;;;4916897;29;20031;-85
2023/10/23 15:40:05;;;;;;;12.75;4.38;;;;;;;;;;4915611;29;20032;-85
2023/10/23 15:42:50;;;;;;;14.93;4.82;;;;;;;;;;4914248;29;20031;-85
2023/10/23 15:45:36;;;;;;;11.00;5.32;;;;;;;;;;4913646;29;20028;-81
2023/10/23 15:48:22;;;;;;;7.53;3.60;;;;;;;;;;4916347;29;20040;-83
2023/10/23 15:51:08;;;;;;;9.52;4.13;;;;;;;;;;4908807;29;20039;-85
2023/10/23 15:53:53;;;;;;;10.48;4.22;;;;;;;;;;4916833;29;20047;-87
2023/10/23 15:56:40;;;;;;;9.27;4.30;;;;;;;;;;4917390;29;20028;-87
2023/10/23 15:59:25;;;;;;;12.13;4.80;;;;;;;;;;4913691;29;20423;-87
2023/10/23 16:02:11;;;;;;;7.72;3.97;;;;;;;;;;4909580;29;20471;-84
2023/10/23 16:04:56;;;;;;;16.42;4.88;;;;;;;;;;4919943;28;20571;-82
2023/10/23 16:07:42;;;;;;;10.05;4.32;;;;;;;;;;4904226;29;20078;-82
2023/10/23 16:10:27;;;;;;;12.95;4.75;;;;;;;;;;4917418;29;20058;-83
2023/10/23 16:13:17;;;;;;;9.43;3.63;;;;;;;;;;4913936;29;20046;-82
2023/10/23 16:16:03;;;;;;;;;;;;;;;;;;4918858;29;20119;-82
2023/10/23 16:18:50;;;;;;;8.32;3.78;;;;;;;;;;4917854;29;20298;-82
2023/10/23 16:21:36;;;;;;;9.35;3.97;;;;;;;;;;4923717;29;20111;-82
2023/10/23 16:24:21;;;;;;;11.88;4.43;;;;;;;;;;4919855;29;20034;-83
2023/10/23 16:27:06;;;;;;;9.43;4.15;;;;;;;;;;4903319;29;20018;-84
2023/10/23 16:29:52;;;;;;;10.60;4.13;;;;;;;;;;4914243;29;20031;-85
2023/10/23 16:32:39;;;;;;;8.50;4.22;;;;;;;;;;4922299;29;20019;-86
2023/10/23 16:35:25;;;;;;;7.43;4.43;;;;;;;;;;4913199;29;20022;-83
2023/10/23 16:38:10;;;;;;;8.38;3.80;;;;;;;;;;4916143;29;20039;-85